Terminal Aerodrome Forecast
Issued by NWS Twin Cities, MN

Home | Current Version | Previous Version | Graphics & Text | Print | Product List | Glossary On
Versions: 1 2 3 4 5 6 7 8 9 10 11 12 13 14 15 16 17 18 19 20 21 22
000
FTUS43 KMPX 161133
TAFSTC
TAF
KSTC 161133Z 1612/1712 11007KT P6SM SCT007 OVC030
     FM161400 13008KT P6SM OVC025
     FM161800 13007KT 5SM -RA BR OVC015
     FM162100 15007KT 5SM -RA BR VCTS SCT020 OVC035CB
      TEMPO 1622/1702 3SM TSRA OVC020CB
     FM170200 10006KT 4SM RA BR VCTS OVC015CB
     FM170600 01005KT 3SM RA BR OVC007=

USA.gov is the U.S. government's official web portal to all federal, state and local government web resources and services.